TPOK1: Kansas River, State-Line, KS

                                SHEF ID:       TPOK1     MARAIS DES CYGNES R NR KS-MO ST
STATION TYPE:

STAGE STAGE(2) RIV-FLOW BAT-LOAD
ft ft cfs volt
Ccp-Rev Ccp-Rev Ccp-Rev Ccp-Rev
(America/Chicago)
06/25 00:00 9.48 9.58 3088 12.55
06/25 01:00 9.44 9.51 3060 12.53
06/25 02:00 9.36 9.49 3005 12.50
06/25 03:00 9.37 9.45 3012 12.48
06/25 04:00 9.33 9.44 2984 12.46
06/25 05:00 9.28 9.37 2950 12.44
06/25 06:00 9.24 9.34 2923 12.43
06/25 07:00 9.20 9.33 2896 12.45
06/25 08:00 9.17 9.27 2876 12.44
06/25 09:00 9.16 9.26 2869 12.86
06/25 10:00 9.12 9.21 2842 13.26
06/25 11:00 9.11 9.21 2835 -999.90
06/25 12:00 9.14 9.13 2856 13.30
06/25 13:00 9.12 9.13 2842 13.23
06/25 14:00 9.09 9.08 2822 13.16
06/25 15:00 9.07 9.10 2809 13.06
06/25 16:00 9.03 9.04 2782 12.99
06/25 17:00 9.00 9.01 2762 12.98
06/25 18:00 8.99 8.98 2755 12.90
06/25 19:00 8.97 8.96 2742 12.63
06/25 20:00 8.92 8.96 2709 12.59
06/25 21:00 8.93 8.90 2716 12.57
06/25 22:00 8.89 8.88 2689 12.54
06/25 23:00 8.86 8.86 2669 12.52
Data processed at Fri 26Jun2026 04:52 GMT

NOTICE: If you are parsing this page

Please convert to using our Data API. Starting early 2026 we will be migrating to: https://water.usace.army.mil with modern pages rendered in JavaScript. When this migration completes you will no longer be able to scrape this page! CWMSDataAPI (CDA)

Timeseries IDs (TSIDs)

TSIDs used from left to right in the data table
MKSL.Stage.Inst.1Hour.0.Ccp-Rev
MKSL.Stage-Alt.Inst.1Hour.0.Ccp-Rev
MKSL.Flow.Inst.1Hour.0.Ccp-Rev
MKSL.Volt-Battery Load.Inst.1Hour.0.Ccp-Rev

                            

All information presented herein is the property of the government of the United States of America and may be revised or deleted at any time without prior notice. Dissemination of this information without the expressed written consent of the Public Affairs Office, Tulsa District U.S. Army Corps of Engineers is strictly prohibited. These data are gathered electronically and, as presented, have NOT undergone any form of quality control. These data are NOT guaranteed to be valid or correct.